Time;durP1;ratioP1;P1;durP2;ratioP2;P2;SDS_P1;SDS_P2;PMS_P1;PMS_P2;Temp;Humidity;BMP_temperature;BMP_pressure;BME280_temperature;BME280_humidity;BME280_pressure;Samples;Min_cycle;Max_cycle;Signal;HPM_P1;HPM_P2
2022/12/21 05:32:51;;;;;;;;;6.33;5.00;;;;;;;;5000712;28;45943;-60
2022/12/21 05:35:17;;;;;;;;;4.00;4.00;;;;;;;;5005074;28;46246;-60
2022/12/21 05:37:42;;;;;;;;;3.00;3.00;;;;;;;;5006144;28;45521;-60
2022/12/21 05:40:08;;;;;;;;;4.00;3.00;;;;;;;;5000637;28;45218;-60
2022/12/21 05:42:33;;;;;;;;;3.00;3.00;;;;;;;;5002256;28;45531;-60
2022/12/21 05:44:58;;;;;;;;;6.00;2.67;;;;;;;;5000786;28;46060;-60
2022/12/21 05:47:23;;;;;;;;;3.33;3.00;;;;;;;;5004344;28;45439;-60
2022/12/21 05:49:48;;;;;;;;;1.00;1.00;;;;;;;;5005660;28;45510;-60
2022/12/21 05:52:14;;;;;;;;;3.00;3.00;;;;;;;;5006481;28;45460;-60
2022/12/21 05:54:39;;;;;;;;;3.67;3.67;;;;;;;;5005312;28;45306;-60
2022/12/21 05:57:04;;;;;;;;;6.00;3.00;;;;;;;;5005118;28;45304;-60
2022/12/21 05:59:29;;;;;;;;;3.00;3.00;;;;;;;;5008593;28;45539;-60
2022/12/21 06:01:54;;;;;;;;;3.00;3.00;;;;;;;;5001147;28;45316;-60
2022/12/21 06:04:20;;;;;;;;;2.00;2.00;;;;;;;;5001629;28;46292;-60
2022/12/21 06:06:46;;;;;;;;;2.00;2.00;;;;;;;;5002081;28;45296;-60
2022/12/21 06:09:11;;;;;;;;;2.00;2.00;;;;;;;;5000231;28;45367;-60
2022/12/21 06:11:37;;;;;;;;;2.67;2.67;;;;;;;;5003375;28;45459;-60
2022/12/21 06:14:02;;;;;;;;;3.00;3.00;;;;;;;;5003486;28;46319;-60
2022/12/21 06:16:27;;;;;;;;;2.00;2.00;;;;;;;;5011279;28;45665;-60
2022/12/21 06:18:53;;;;;;;;;2.00;2.00;;;;;;;;5000365;28;45774;-60
2022/12/21 06:21:18;;;;;;;;;2.00;2.00;;;;;;;;5000011;28;45548;-60
2022/12/21 06:23:44;;;;;;;;;3.00;3.00;;;;;;;;4993867;28;45467;-60
2022/12/21 06:26:14;;;;;;;;;1.33;1.33;;;;;;;;4998811;28;45526;-60
2022/12/21 06:28:39;;;;;;;;;2.00;2.00;;;;;;;;4997615;28;45597;-60
2022/12/21 06:31:09;;;;;;;;;2.00;2.00;;;;;;;;5000966;28;45471;-60
2022/12/21 06:33:35;;;;;;;;;2.00;2.00;;;;;;;;5007352;28;45463;-60
2022/12/21 06:36:00;;;;;;;;;5.00;3.00;;;;;;;;4999720;28;45284;-59
2022/12/21 06:38:25;;;;;;;;;2.67;2.67;;;;;;;;5000613;28;45392;-60
2022/12/21 06:41:00;;;;;;;;;2.00;2.00;;;;;;;;5002174;28;45528;-59
2022/12/21 06:43:27;;;;;;;;;3.00;2.00;;;;;;;;4995190;28;45478;-59
2022/12/21 06:45:57;;;;;;;;;4.00;2.00;;;;;;;;5006196;28;45312;-59
2022/12/21 06:48:23;;;;;;;;;2.00;2.00;;;;;;;;5001717;28;45399;-60
2022/12/21 06:50:52;;;;;;;;;3.00;2.00;;;;;;;;5006043;28;45367;-59
2022/12/21 06:53:17;;;;;;;;;1.33;1.33;;;;;;;;5007553;28;46041;-59
2022/12/21 06:55:42;;;;;;;;;1.67;1.33;;;;;;;;5003179;28;45706;-59
2022/12/21 06:58:07;;;;;;;;;3.33;3.33;;;;;;;;5000145;28;45376;-59
2022/12/21 07:00:32;;;;;;;;;2.67;2.33;;;;;;;;5005916;28;45563;-59
2022/12/21 07:02:58;;;;;;;;;3.00;3.00;;;;;;;;4999814;28;46101;-59
2022/12/21 07:05:23;;;;;;;;;4.33;4.00;;;;;;;;5004261;28;45499;-59
2022/12/21 07:07:48;;;;;;;;;2.33;2.33;;;;;;;;5000847;28;45533;-59
2022/12/21 07:10:13;;;;;;;;;2.00;2.00;;;;;;;;5003537;28;45275;-59
2022/12/21 07:12:39;;;;;;;;;4.00;2.33;;;;;;;;5006414;28;45399;-59
2022/12/21 07:15:04;;;;;;;;;2.67;2.00;;;;;;;;4999269;28;45217;-60
2022/12/21 07:17:29;;;;;;;;;2.67;2.00;;;;;;;;5011398;28;45224;-60
2022/12/21 07:19:54;;;;;;;;;3.00;3.00;;;;;;;;5006072;28;45326;-60
2022/12/21 07:22:20;;;;;;;;;6.00;4.00;;;;;;;;4998081;28;46286;-60
2022/12/21 07:24:45;;;;;;;;;3.33;3.00;;;;;;;;5000918;28;45391;-60
2022/12/21 07:27:10;;;;;;;;;5.00;3.33;;;;;;;;5016245;28;45319;-60
2022/12/21 07:29:35;;;;;;;;;2.00;2.00;;;;;;;;5015483;28;45546;-60
2022/12/21 07:32:01;;;;;;;;;3.67;3.00;;;;;;;;5009115;28;46053;-61
2022/12/21 07:34:26;;;;;;;;;4.00;4.00;;;;;;;;4998013;28;45507;-61
2022/12/21 07:36:51;;;;;;;;;4.33;4.33;;;;;;;;5002101;28;45302;-58
2022/12/21 07:39:16;;;;;;;;;5.33;2.33;;;;;;;;5000800;28;45483;-59
2022/12/21 07:41:42;;;;;;;;;6.33;5.00;;;;;;;;5009174;28;45598;-59
2022/12/21 07:44:07;;;;;;;;;8.33;6.00;;;;;;;;5005070;28;45422;-59
2022/12/21 07:46:32;;;;;;;;;7.00;6.00;;;;;;;;5006504;28;45450;-59
2022/12/21 07:48:57;;;;;;;;;5.67;5.67;;;;;;;;4997166;28;45509;-59
2022/12/21 07:51:23;;;;;;;;;5.00;4.33;;;;;;;;4998858;28;46308;-58
2022/12/21 07:53:48;;;;;;;;;5.00;5.00;;;;;;;;5009457;28;45376;-58
2022/12/21 07:56:14;;;;;;;;;5.67;3.00;;;;;;;;5018091;28;45304;-58
2022/12/21 07:58:40;;;;;;;;;4.33;4.33;;;;;;;;5017372;28;45321;-58
2022/12/21 08:01:06;;;;;;;;;5.00;4.00;;;;;;;;5013413;28;45278;-59
2022/12/21 08:03:32;;;;;;;;;4.67;4.00;;;;;;;;5014095;28;45246;-58
2022/12/21 08:05:57;;;;;;;;;5.00;3.00;;;;;;;;5017203;28;45265;-59
2022/12/21 08:08:22;;;;;;;;;4.00;4.00;;;;;;;;5015367;28;45292;-58
2022/12/21 08:10:47;;;;;;;;;5.00;5.00;;;;;;;;5016737;28;45404;-59
2022/12/21 08:13:12;;;;;;;;;6.00;4.00;;;;;;;;4997824;28;45305;-59
2022/12/21 08:15:38;;;;;;;;;5.33;4.67;;;;;;;;5017417;28;45182;-59
2022/12/21 08:18:03;;;;;;;;;5.00;5.00;;;;;;;;5015372;28;45464;-59
2022/12/21 08:20:29;;;;;;;;;7.00;5.00;;;;;;;;5017226;28;46110;-59
2022/12/21 08:22:54;;;;;;;;;5.00;4.33;;;;;;;;5014679;28;45343;-59
2022/12/21 08:25:19;;;;;;;;;5.00;4.67;;;;;;;;5016941;28;45317;-59
2022/12/21 08:27:44;;;;;;;;;4.00;3.67;;;;;;;;5015211;28;45510;-59
2022/12/21 08:30:10;;;;;;;;;7.33;4.00;;;;;;;;5016383;28;45664;-59
2022/12/21 08:32:36;;;;;;;;;5.00;5.00;;;;;;;;5015289;28;45345;-59
2022/12/21 08:35:01;;;;;;;;;3.00;3.00;;;;;;;;5018922;28;45514;-59
2022/12/21 08:37:26;;;;;;;;;5.00;4.00;;;;;;;;5010590;28;45360;-59
2022/12/21 08:39:51;;;;;;;;;3.00;3.00;;;;;;;;5001220;28;46226;-59
2022/12/21 08:42:17;;;;;;;;;3.00;3.00;;;;;;;;5014502;28;45554;-59
2022/12/21 08:44:42;;;;;;;;;5.00;3.67;;;;;;;;5019335;28;45331;-59
2022/12/21 08:47:07;;;;;;;;;4.00;4.00;;;;;;;;5014178;28;45661;-59
2022/12/21 08:49:51;;;;;;;;;8.00;3.00;;;;;;;;5010980;28;45423;-58
2022/12/21 08:52:16;;;;;;;;;3.33;3.33;;;;;;;;4996962;28;45538;-59
2022/12/21 08:54:41;;;;;;;;;3.33;3.33;;;;;;;;5007273;28;45285;-59
2022/12/21 08:57:06;;;;;;;;;3.00;1.33;;;;;;;;5007075;28;45776;-59
2022/12/21 08:59:31;;;;;;;;;5.67;3.00;;;;;;;;5008794;28;45352;-59
2022/12/21 09:01:57;;;;;;;;;3.33;1.00;;;;;;;;5006963;28;45377;-59
2022/12/21 09:04:22;;;;;;;;;4.00;4.00;;;;;;;;5005487;28;45373;-59
2022/12/21 09:06:47;;;;;;;;;4.00;3.00;;;;;;;;5000048;28;45409;-59
2022/12/21 09:09:12;;;;;;;;;6.00;6.00;;;;;;;;5009799;28;45452;-59
2022/12/21 09:11:37;;;;;;;;;5.33;3.00;;;;;;;;5000991;28;45492;-59
2022/12/21 09:14:03;;;;;;;;;3.00;3.00;;;;;;;;5000139;28;45420;-58
2022/12/21 09:16:28;;;;;;;;;5.00;4.00;;;;;;;;5000005;28;46644;-59
2022/12/21 09:18:53;;;;;;;;;5.00;3.67;;;;;;;;5000259;28;45663;-60
2022/12/21 09:21:20;;;;;;;;;3.00;3.00;;;;;;;;5000862;28;45363;-59
2022/12/21 09:23:45;;;;;;;;;9.33;4.00;;;;;;;;5003062;28;45443;-59
2022/12/21 09:26:11;;;;;;;;;3.67;3.00;;;;;;;;5005736;28;45321;-59
2022/12/21 09:28:36;;;;;;;;;5.33;4.00;;;;;;;;5008410;28;45302;-59
2022/12/21 09:31:28;;;;;;;;;6.67;6.00;;;;;;;;5010777;28;45740;-59
2022/12/21 09:33:54;;;;;;;;;4.67;4.33;;;;;;;;5013378;28;45561;-60
2022/12/21 09:36:20;;;;;;;;;5.33;3.67;;;;;;;;5023376;28;45356;-60
2022/12/21 09:38:45;;;;;;;;;4.33;4.33;;;;;;;;5029902;28;47163;-59
2022/12/21 09:41:29;;;;;;;;;9.67;6.00;;;;;;;;5025689;28;45410;-59
2022/12/21 09:44:06;;;;;;;;;2.00;2.00;;;;;;;;5026114;28;45421;-59
2022/12/21 09:46:35;;;;;;;;;7.00;5.00;;;;;;;;5023312;28;45255;-59
2022/12/21 09:49:04;;;;;;;;;8.00;5.33;;;;;;;;5019156;28;45626;-59
2022/12/21 09:51:31;;;;;;;;;6.67;4.67;;;;;;;;5007245;28;45328;-60
2022/12/21 09:54:05;;;;;;;;;4.00;4.00;;;;;;;;5001340;28;45399;-60
2022/12/21 09:56:31;;;;;;;;;8.00;6.00;;;;;;;;5003969;28;45580;-60
2022/12/21 09:58:59;;;;;;;;;7.33;5.67;;;;;;;;5015919;28;46279;-60
2022/12/21 10:01:27;;;;;;;;;4.00;4.00;;;;;;;;5014506;28;45434;-60
2022/12/21 10:04:11;;;;;;;;;5.67;5.33;;;;;;;;5016764;28;45403;-59
2022/12/21 10:07:07;;;;;;;;;3.00;3.00;;;;;;;;5007677;28;45563;-59
2022/12/21 10:09:51;;;;;;;;;10.00;6.00;;;;;;;;5020083;28;47508;-58
2022/12/21 10:12:29;;;;;;;;;6.00;5.00;;;;;;;;5020019;28;45556;-58
2022/12/21 10:15:08;;;;;;;;;2.67;2.33;;;;;;;;5016514;28;45763;-58
2022/12/21 10:17:42;;;;;;;;;4.33;4.33;;;;;;;;5021222;28;45877;-58
2022/12/21 10:20:27;;;;;;;;;8.00;6.00;;;;;;;;5020317;28;45420;-59
2022/12/21 10:22:54;;;;;;;;;5.33;4.00;;;;;;;;5015936;28;45400;-59
2022/12/21 10:25:19;;;;;;;;;5.67;4.33;;;;;;;;5027241;28;45811;-60
2022/12/21 10:27:50;;;;;;;;;7.00;5.00;;;;;;;;5025546;28;45331;-59
2022/12/21 10:30:16;;;;;;;;;5.33;4.00;;;;;;;;5019722;28;46263;-59
2022/12/21 10:32:45;;;;;;;;;7.00;6.33;;;;;;;;4999754;28;45441;-59
2022/12/21 10:35:16;;;;;;;;;8.33;7.00;;;;;;;;4989048;28;45810;-60
2022/12/21 10:37:47;;;;;;;;;6.67;4.67;;;;;;;;4985199;28;45667;-60
2022/12/21 10:40:12;;;;;;;;;14.33;11.33;;;;;;;;4995990;28;47252;-60
2022/12/21 10:42:39;;;;;;;;;6.00;6.00;;;;;;;;4998208;28;45582;-60
2022/12/21 10:45:05;;;;;;;;;6.00;5.00;;;;;;;;4997412;28;45535;-60
2022/12/21 10:47:30;;;;;;;;;5.67;4.00;;;;;;;;4998244;28;45302;-58
2022/12/21 10:50:03;;;;;;;;;7.33;6.33;;;;;;;;4997517;28;45790;-60
2022/12/21 10:52:32;;;;;;;;;6.00;5.00;;;;;;;;4989988;28;45468;-60
2022/12/21 10:54:57;;;;;;;;;6.00;3.00;;;;;;;;4993407;28;45524;-60
2022/12/21 10:57:25;;;;;;;;;6.00;5.00;;;;;;;;4996241;28;45438;-60
2022/12/21 10:59:50;;;;;;;;;5.00;3.00;;;;;;;;4996830;28;46102;-59
2022/12/21 11:02:35;;;;;;;;;6.33;6.00;;;;;;;;4971144;28;45574;-59
2022/12/21 11:05:01;;;;;;;;;7.33;6.00;;;;;;;;5000511;28;45526;-59
2022/12/21 11:07:28;;;;;;;;;5.00;5.00;;;;;;;;4996832;28;45722;-58
2022/12/21 11:09:58;;;;;;;;;4.00;4.00;;;;;;;;4996546;28;46265;-59
2022/12/21 11:12:24;;;;;;;;;4.00;3.00;;;;;;;;4998852;28;45518;-59
2022/12/21 11:14:50;;;;;;;;;6.00;5.00;;;;;;;;4997610;28;45409;-59
2022/12/21 11:17:19;;;;;;;;;6.67;3.67;;;;;;;;4999496;28;45478;-59
2022/12/21 11:19:45;;;;;;;;;5.67;4.33;;;;;;;;4997924;28;46527;-59
2022/12/21 11:22:13;;;;;;;;;6.00;5.00;;;;;;;;4998638;28;45883;-59
2022/12/21 11:24:39;;;;;;;;;4.00;4.00;;;;;;;;4989438;28;45398;-59
2022/12/21 11:27:15;;;;;;;;;7.67;6.00;;;;;;;;4997316;28;45520;-59
2022/12/21 11:29:49;;;;;;;;;4.00;4.00;;;;;;;;4997567;28;46283;-58
2022/12/21 11:32:15;;;;;;;;;8.33;5.33;;;;;;;;5013922;28;45461;-59
2022/12/21 11:34:43;;;;;;;;;6.00;6.00;;;;;;;;5016173;28;45767;-59
2022/12/21 11:37:23;;;;;;;;;6.33;6.00;;;;;;;;5012648;28;45506;-59
2022/12/21 11:39:49;;;;;;;;;5.00;5.00;;;;;;;;5006770;28;45246;-59
2022/12/21 11:42:18;;;;;;;;;8.00;8.00;;;;;;;;5018280;28;45351;-59
2022/12/21 11:44:44;;;;;;;;;5.67;5.00;;;;;;;;5009791;28;45536;-59
2022/12/21 11:47:09;;;;;;;;;5.33;5.33;;;;;;;;5015204;28;45551;-59
2022/12/21 11:49:46;;;;;;;;;5.00;5.00;;;;;;;;5017432;28;45391;-59
2022/12/21 11:52:23;;;;;;;;;4.00;4.00;;;;;;;;5012654;28;45234;-59
2022/12/21 11:54:51;;;;;;;;;5.00;5.00;;;;;;;;5013416;28;45368;-60
2022/12/21 11:57:16;;;;;;;;;4.67;4.67;;;;;;;;5015516;28;45483;-60
2022/12/21 11:59:54;;;;;;;;;3.67;3.67;;;;;;;;5016833;28;46872;-59
2022/12/21 12:02:38;;;;;;;;;6.00;6.00;;;;;;;;5017494;28;45529;-58
2022/12/21 12:05:21;;;;;;;;;5.00;5.00;;;;;;;;5005213;28;45431;-59
2022/12/21 12:07:51;;;;;;;;;6.33;5.00;;;;;;;;5016184;28;45627;-59
2022/12/21 12:10:16;;;;;;;;;6.00;5.00;;;;;;;;5020438;28;45423;-59
2022/12/21 12:12:49;;;;;;;;;5.00;5.00;;;;;;;;5020537;28;45435;-59
2022/12/21 12:15:24;;;;;;;;;8.67;6.67;;;;;;;;5016990;28;45420;-59
2022/12/21 12:18:11;;;;;;;;;6.67;6.00;;;;;;;;5019635;28;45399;-59
2022/12/21 12:20:43;;;;;;;;;5.33;5.33;;;;;;;;5020528;28;45541;-60
2022/12/21 12:23:16;;;;;;;;;5.00;5.00;;;;;;;;5019628;28;45360;-59
2022/12/21 12:26:04;;;;;;;;;4.00;4.00;;;;;;;;5020339;28;45461;-59
2022/12/21 12:28:35;;;;;;;;;6.00;5.00;;;;;;;;5015803;28;46535;-59
2022/12/21 12:31:02;;;;;;;;;7.67;7.00;;;;;;;;5016598;28;46373;-59
2022/12/21 12:33:27;;;;;;;;;7.67;6.00;;;;;;;;5007545;28;45404;-60
2022/12/21 12:36:00;;;;;;;;;6.67;6.67;;;;;;;;5019433;28;45412;-60
2022/12/21 12:38:31;;;;;;;;;9.67;7.33;;;;;;;;5013707;28;45475;-60
2022/12/21 12:41:06;;;;;;;;;6.00;4.67;;;;;;;;5039683;28;45377;-60
2022/12/21 12:43:50;;;;;;;;;7.33;6.33;;;;;;;;5040221;28;45323;-60
2022/12/21 12:46:34;;;;;;;;;5.67;5.00;;;;;;;;5035475;28;45629;-59
2022/12/21 12:49:20;;;;;;;;;7.00;5.00;;;;;;;;5039645;28;45354;-59
2022/12/21 12:51:46;;;;;;;;;6.33;5.00;;;;;;;;5039879;28;47091;-59
2022/12/21 12:54:38;;;;;;;;;6.00;6.00;;;;;;;;5039522;28;45470;-60
2022/12/21 12:57:03;;;;;;;;;3.33;3.33;;;;;;;;5038718;28;45476;-59
2022/12/21 12:59:29;;;;;;;;;4.00;4.00;;;;;;;;5037882;28;45866;-60
2022/12/21 13:01:57;;;;;;;;;5.00;4.00;;;;;;;;5036313;28;45416;-60
2022/12/21 13:04:22;;;;;;;;;7.00;4.00;;;;;;;;5037420;28;45394;-60
2022/12/21 13:07:06;;;;;;;;;2.00;2.00;;;;;;;;5039582;28;45395;-60
2022/12/21 13:09:40;;;;;;;;;3.00;3.00;;;;;;;;5039719;28;45681;-60
2022/12/21 13:12:19;;;;;;;;;4.00;4.00;;;;;;;;5038673;28;46428;-60
2022/12/21 13:14:56;;;;;;;;;4.00;3.00;;;;;;;;5038977;28;45398;-60
2022/12/21 13:17:41;;;;;;;;;3.00;3.00;;;;;;;;5036831;28;45466;-60
2022/12/21 13:20:09;;;;;;;;;4.00;4.00;;;;;;;;5036653;28;46195;-60
2022/12/21 13:22:36;;;;;;;;;2.00;2.00;;;;;;;;5038000;28;45463;-60
2022/12/21 13:25:14;;;;;;;;;1.00;1.00;;;;;;;;5039301;28;45303;-60
2022/12/21 13:27:42;;;;;;;;;4.00;2.00;;;;;;;;5018921;28;45803;-60
2022/12/21 13:30:12;;;;;;;;;1.00;1.00;;;;;;;;5037911;28;45481;-61
2022/12/21 13:32:39;;;;;;;;;5.67;3.00;;;;;;;;5038953;28;45344;-60
2022/12/21 13:35:23;;;;;;;;;2.33;2.33;;;;;;;;5035670;28;45364;-60
2022/12/21 13:37:53;;;;;;;;;2.67;2.00;;;;;;;;5035766;28;45431;-60
2022/12/21 13:40:21;;;;;;;;;3.00;3.00;;;;;;;;5038677;28;45551;-60
2022/12/21 13:43:07;;;;;;;;;2.67;2.00;;;;;;;;5019672;28;48292;-60
2022/12/21 13:45:58;;;;;;;;;6.00;3.00;;;;;;;;5036253;28;45538;-60
2022/12/21 13:48:26;;;;;;;;;2.67;2.00;;;;;;;;5033093;28;45573;-60
2022/12/21 13:51:10;;;;;;;;;2.00;2.00;;;;;;;;5037341;28;45487;-60
2022/12/21 13:53:53;;;;;;;;;4.67;4.00;;;;;;;;5034263;28;47456;-60
2022/12/21 13:56:36;;;;;;;;;3.33;3.33;;;;;;;;5035719;28;45399;-60
2022/12/21 13:59:05;;;;;;;;;2.67;2.67;;;;;;;;5036247;28;45590;-62
2022/12/21 14:01:49;;;;;;;;;2.00;2.00;;;;;;;;5037572;28;45582;-60
2022/12/21 14:04:33;;;;;;;;;2.00;2.00;;;;;;;;5036114;28;45488;-60
2022/12/21 14:07:00;;;;;;;;;3.33;1.00;;;;;;;;5030644;28;45558;-60
2022/12/21 14:09:43;;;;;;;;;2.00;2.00;;;;;;;;5038067;28;45380;-60
2022/12/21 14:12:11;;;;;;;;;2.00;2.00;;;;;;;;5038295;28;45951;-60
2022/12/21 14:14:55;;;;;;;;;3.33;2.00;;;;;;;;5037384;28;45269;-60
2022/12/21 14:17:28;;;;;;;;;5.00;2.00;;;;;;;;5037853;28;45406;-60
2022/12/21 14:19:54;;;;;;;;;4.33;3.00;;;;;;;;5038580;28;45531;-61
2022/12/21 14:22:49;;;;;;;;;2.67;1.00;;;;;;;;5037252;28;45478;-59
2022/12/21 14:25:19;;;;;;;;;2.00;1.00;;;;;;;;5023419;28;45676;-59
2022/12/21 14:28:10;;;;;;;;;2.00;2.00;;;;;;;;5037422;28;45312;-59
2022/12/21 14:30:35;;;;;;;;;2.00;2.00;;;;;;;;5033618;28;45359;-59
2022/12/21 14:33:03;;;;;;;;;2.00;2.00;;;;;;;;5036926;28;45430;-59
2022/12/21 14:35:31;;;;;;;;;2.67;1.00;;;;;;;;5036468;28;46181;-59
2022/12/21 14:38:10;;;;;;;;;2.00;2.00;;;;;;;;5033078;28;46015;-59
2022/12/21 14:40:59;;;;;;;;;3.00;1.00;;;;;;;;5038348;28;45982;-59
2022/12/21 14:43:25;;;;;;;;;1.00;1.00;;;;;;;;5029890;28;45276;-59
2022/12/21 14:45:50;;;;;;;;;3.00;2.00;;;;;;;;5036268;28;45718;-60
2022/12/21 14:48:23;;;;;;;;;2.00;2.00;;;;;;;;5036683;28;45451;-59
2022/12/21 14:50:58;;;;;;;;;1.67;1.67;;;;;;;;5037581;28;45431;-59
2022/12/21 14:53:26;;;;;;;;;1.33;1.33;;;;;;;;5038521;28;45763;-59
2022/12/21 14:56:17;;;;;;;;;1.00;1.00;;;;;;;;5036956;28;45682;-59
2022/12/21 14:58:45;;;;;;;;;2.00;2.00;;;;;;;;5031399;28;45657;-60
2022/12/21 15:01:13;;;;;;;;;1.00;1.00;;;;;;;;5031125;28;45472;-60
2022/12/21 15:03:43;;;;;;;;;1.00;1.00;;;;;;;;5018291;28;45570;-59
2022/12/21 15:06:10;;;;;;;;;6.00;1.33;;;;;;;;5037654;28;46070;-60
2022/12/21 15:08:38;;;;;;;;;2.00;2.00;;;;;;;;5019522;28;45369;-59
2022/12/21 15:11:10;;;;;;;;;4.00;1.00;;;;;;;;5037258;28;45477;-58
2022/12/21 15:13:39;;;;;;;;;2.33;2.33;;;;;;;;5038066;28;46426;-59
2022/12/21 15:16:07;;;;;;;;;2.00;2.00;;;;;;;;5018472;28;47429;-60
2022/12/21 15:18:41;;;;;;;;;4.00;3.00;;;;;;;;5036662;28;45400;-59
2022/12/21 15:21:25;;;;;;;;;2.00;2.00;;;;;;;;5031236;28;45533;-59
2022/12/21 15:23:50;;;;;;;;;6.00;2.00;;;;;;;;5034883;28;45286;-59
2022/12/21 15:26:42;;;;;;;;;2.00;2.00;;;;;;;;5037287;28;46379;-60
2022/12/21 15:29:15;;;;;;;;;2.00;2.00;;;;;;;;5022767;28;46163;-59
2022/12/21 15:31:42;;;;;;;;;2.00;2.00;;;;;;;;5025056;28;45475;-59
2022/12/21 15:34:14;;;;;;;;;3.00;3.00;;;;;;;;5037002;28;45597;-59
2022/12/21 15:36:41;;;;;;;;;1.00;1.00;;;;;;;;5019583;28;47605;-60
2022/12/21 15:39:11;;;;;;;;;4.67;3.00;;;;;;;;5034872;28;45709;-60
2022/12/21 15:41:36;;;;;;;;;3.00;1.33;;;;;;;;5035414;28;45727;-59
2022/12/21 15:44:05;;;;;;;;;2.00;1.33;;;;;;;;5037814;28;45538;-60
2022/12/21 15:46:42;;;;;;;;;3.67;1.00;;;;;;;;5039005;28;46317;-60
2022/12/21 15:49:07;;;;;;;;;3.00;3.00;;;;;;;;5039417;28;45695;-60
2022/12/21 15:51:37;;;;;;;;;4.00;3.00;;;;;;;;5039668;28;45630;-66
2022/12/21 15:54:10;;;;;;;;;1.67;1.67;;;;;;;;5039180;28;45450;-65
2022/12/21 15:56:35;;;;;;;;;2.00;2.00;;;;;;;;5039768;28;45395;-66
2022/12/21 15:59:00;;;;;;;;;3.00;1.00;;;;;;;;5038984;28;45452;-65
2022/12/21 16:01:27;;;;;;;;;5.00;2.00;;;;;;;;5041114;28;45347;-66
2022/12/21 16:03:52;;;;;;;;;3.00;3.00;;;;;;;;5041135;28;45590;-65
2022/12/21 16:06:24;;;;;;;;;1.00;1.00;;;;;;;;5040522;28;45355;-65
2022/12/21 16:08:51;;;;;;;;;2.33;2.33;;;;;;;;5035238;28;45675;-65
2022/12/21 16:11:26;;;;;;;;;2.33;1.00;;;;;;;;5040537;28;45311;-65
2022/12/21 16:13:57;;;;;;;;;3.00;3.00;;;;;;;;5040422;28;45446;-65
2022/12/21 16:16:22;;;;;;;;;4.00;2.67;;;;;;;;5040492;28;45483;-65
2022/12/21 16:18:47;;;;;;;;;4.33;3.00;;;;;;;;5040341;28;45510;-65
2022/12/21 16:21:17;;;;;;;;;2.00;2.00;;;;;;;;5041157;28;45386;-65
2022/12/21 16:23:47;;;;;;;;;3.00;2.00;;;;;;;;5040368;28;45229;-65
2022/12/21 16:26:19;;;;;;;;;2.00;2.00;;;;;;;;5040173;28;46234;-66
2022/12/21 16:28:46;;;;;;;;;2.00;2.00;;;;;;;;5039324;28;45310;-66
2022/12/21 16:31:15;;;;;;;;;3.00;3.00;;;;;;;;5040706;28;45557;-67
2022/12/21 16:33:42;;;;;;;;;3.00;2.00;;;;;;;;5039510;28;45645;-66
2022/12/21 16:36:11;;;;;;;;;2.67;2.00;;;;;;;;5037121;28;45430;-65
2022/12/21 16:38:37;;;;;;;;;3.00;3.00;;;;;;;;5039911;28;45324;-63
2022/12/21 16:41:03;;;;;;;;;2.33;2.33;;;;;;;;5040755;28;45526;-59
2022/12/21 16:43:28;;;;;;;;;3.00;1.00;;;;;;;;5038030;28;45482;-60
2022/12/21 16:45:55;;;;;;;;;2.00;2.00;;;;;;;;5039905;28;45510;-59
2022/12/21 16:48:22;;;;;;;;;5.00;2.00;;;;;;;;5040615;28;45420;-59
2022/12/21 16:50:58;;;;;;;;;5.00;2.00;;;;;;;;5040057;28;45529;-58
2022/12/21 16:53:36;;;;;;;;;2.00;2.00;;;;;;;;5039535;28;45777;-58
2022/12/21 16:56:16;;;;;;;;;2.00;1.00;;;;;;;;5037125;28;46168;-58
2022/12/21 16:58:46;;;;;;;;;2.00;1.00;;;;;;;;5040204;28;45462;-59
2022/12/21 17:01:12;;;;;;;;;2.00;2.00;;;;;;;;5040687;28;45547;-58
2022/12/21 17:03:38;;;;;;;;;2.00;2.00;;;;;;;;5043246;28;45654;-59
2022/12/21 17:06:03;;;;;;;;;4.33;3.00;;;;;;;;5041669;28;46090;-58
2022/12/21 17:08:31;;;;;;;;;2.33;2.33;;;;;;;;5043139;28;45418;-58
2022/12/21 17:11:05;;;;;;;;;4.00;3.00;;;;;;;;5021655;28;45246;-58
2022/12/21 17:13:33;;;;;;;;;3.00;3.00;;;;;;;;5038167;28;45690;-58
2022/12/21 17:16:17;;;;;;;;;4.67;3.00;;;;;;;;5035444;28;46403;-58
2022/12/21 17:18:45;;;;;;;;;2.67;2.00;;;;;;;;5048666;28;45502;-59
2022/12/21 17:21:16;;;;;;;;;2.00;2.00;;;;;;;;5041398;28;45316;-59
2022/12/21 17:23:54;;;;;;;;;3.00;3.00;;;;;;;;5039019;28;47296;-59
2022/12/21 17:26:32;;;;;;;;;2.00;2.00;;;;;;;;5039447;28;46383;-59
2022/12/21 17:28:57;;;;;;;;;4.00;3.33;;;;;;;;5037721;28;45397;-63
2022/12/21 17:31:22;;;;;;;;;4.33;4.00;;;;;;;;5039683;28;46322;-60
2022/12/21 17:33:47;;;;;;;;;4.33;3.67;;;;;;;;5039283;28;45680;-62
2022/12/21 17:36:14;;;;;;;;;2.67;1.33;;;;;;;;5038940;28;46092;-63
2022/12/21 17:38:40;;;;;;;;;2.00;2.00;;;;;;;;5037396;28;45722;-61
2022/12/21 17:41:10;;;;;;;;;5.67;2.67;;;;;;;;5034234;28;45387;-69
2022/12/21 17:43:35;;;;;;;;;2.00;2.00;;;;;;;;5039519;28;45427;-57
2022/12/21 17:46:03;;;;;;;;;1.00;1.00;;;;;;;;5038102;28;46227;-57
2022/12/21 17:48:28;;;;;;;;;2.67;2.67;;;;;;;;5035782;28;45741;-57
2022/12/21 17:50:53;;;;;;;;;3.00;3.00;;;;;;;;5022770;28;45393;-60
2022/12/21 17:53:20;;;;;;;;;2.00;2.00;;;;;;;;5039157;28;45429;-59
2022/12/21 17:55:45;;;;;;;;;2.00;2.00;;;;;;;;5039460;28;45500;-57
2022/12/21 17:58:11;;;;;;;;;2.00;2.00;;;;;;;;5039650;28;45379;-58
2022/12/21 18:00:36;;;;;;;;;1.67;1.67;;;;;;;;5040034;28;45514;-58
2022/12/21 18:03:04;;;;;;;;;2.00;2.00;;;;;;;;5042503;28;45510;-58
2022/12/21 18:05:30;;;;;;;;;3.33;1.00;;;;;;;;5043197;28;45415;-58
2022/12/21 18:07:55;;;;;;;;;2.33;2.33;;;;;;;;5041816;28;45197;-57
2022/12/21 18:10:28;;;;;;;;;4.00;3.00;;;;;;;;5042240;28;45551;-58
2022/12/21 18:12:54;;;;;;;;;3.67;3.00;;;;;;;;5043049;28;45662;-58
2022/12/21 18:15:20;;;;;;;;;1.33;1.33;;;;;;;;5038924;28;46066;-59
2022/12/21 18:17:51;;;;;;;;;4.00;2.00;;;;;;;;5046196;28;45798;-60
2022/12/21 18:20:19;;;;;;;;;3.00;3.00;;;;;;;;5047508;28;45545;-59
2022/12/21 18:22:44;;;;;;;;;3.33;2.00;;;;;;;;5039825;28;45498;-59
2022/12/21 18:25:17;;;;;;;;;3.00;3.00;;;;;;;;5037686;28;46993;-60
2022/12/21 18:27:42;;;;;;;;;4.33;4.33;;;;;;;;5045997;28;45500;-58
2022/12/21 18:30:15;;;;;;;;;3.67;3.67;;;;;;;;5037284;28;45348;-56
2022/12/21 18:32:42;;;;;;;;;3.67;3.33;;;;;;;;5035492;28;45577;-58
2022/12/21 18:35:19;;;;;;;;;6.00;5.00;;;;;;;;5032553;28;46313;-60
2022/12/21 18:37:45;;;;;;;;;3.33;2.67;;;;;;;;5038269;28;45321;-59
2022/12/21 18:40:15;;;;;;;;;4.33;4.33;;;;;;;;5039917;28;45423;-59
2022/12/21 18:42:40;;;;;;;;;3.00;3.00;;;;;;;;5036620;28;45667;-59
2022/12/21 18:45:05;;;;;;;;;3.33;3.33;;;;;;;;5040874;28;45515;-60
2022/12/21 18:47:31;;;;;;;;;7.33;4.00;;;;;;;;5040795;28;46679;-57
2022/12/21 18:49:56;;;;;;;;;4.00;4.00;;;;;;;;5036499;28;45971;-64
2022/12/21 18:52:22;;;;;;;;;4.33;3.00;;;;;;;;5036953;28;45494;-63
2022/12/21 18:54:47;;;;;;;;;3.00;3.00;;;;;;;;5035921;28;45899;-63
2022/12/21 18:57:16;;;;;;;;;5.00;3.00;;;;;;;;5036407;28;45310;-63
2022/12/21 18:59:41;;;;;;;;;2.00;2.00;;;;;;;;5032201;28;46644;-63
2022/12/21 19:02:19;;;;;;;;;4.00;2.33;;;;;;;;5037196;28;46874;-66
2022/12/21 19:04:45;;;;;;;;;4.00;4.00;;;;;;;;5036091;28;45533;-63
2022/12/21 19:07:13;;;;;;;;;2.33;2.33;;;;;;;;5035572;28;45580;-64
2022/12/21 19:09:38;;;;;;;;;3.00;1.33;;;;;;;;5035907;28;45426;-64
2022/12/21 19:12:08;;;;;;;;;2.00;2.00;;;;;;;;5036151;28;45284;-64
2022/12/21 19:14:33;;;;;;;;;2.00;1.33;;;;;;;;5034725;28;45777;-64
2022/12/21 19:16:58;;;;;;;;;4.33;3.33;;;;;;;;5036400;28;45605;-64
2022/12/21 19:19:28;;;;;;;;;3.00;3.00;;;;;;;;5037514;28;45601;-64
2022/12/21 19:21:54;;;;;;;;;4.00;4.00;;;;;;;;5026908;28;45542;-64
2022/12/21 19:24:23;;;;;;;;;3.00;3.00;;;;;;;;5018494;28;45751;-64
2022/12/21 19:26:49;;;;;;;;;3.00;3.00;;;;;;;;5037124;28;45525;-62
2022/12/21 19:29:19;;;;;;;;;4.33;3.00;;;;;;;;5034259;28;45572;-63
2022/12/21 19:31:44;;;;;;;;;5.00;5.00;;;;;;;;5033610;28;45249;-63
2022/12/21 19:34:10;;;;;;;;;3.00;3.00;;;;;;;;5034894;28;46025;-63
2022/12/21 19:36:40;;;;;;;;;7.00;6.00;;;;;;;;5018603;28;46085;-63
2022/12/21 19:39:12;;;;;;;;;3.00;3.00;;;;;;;;5037277;28;45582;-63
2022/12/21 19:41:37;;;;;;;;;4.00;4.00;;;;;;;;5028612;28;45571;-64
2022/12/21 19:44:02;;;;;;;;;4.00;4.00;;;;;;;;5032613;28;45807;-63
2022/12/21 19:46:28;;;;;;;;;4.33;4.33;;;;;;;;5036270;28;45493;-64
2022/12/21 19:48:54;;;;;;;;;4.00;3.67;;;;;;;;5034825;28;45419;-64
2022/12/21 19:51:20;;;;;;;;;6.00;4.00;;;;;;;;5037754;28;45346;-62
2022/12/21 19:53:45;;;;;;;;;5.00;5.00;;;;;;;;5034927;28;45311;-62
2022/12/21 19:56:19;;;;;;;;;5.00;5.00;;;;;;;;5035580;28;45638;-62
2022/12/21 19:58:45;;;;;;;;;4.00;2.00;;;;;;;;5037594;28;45367;-62
2022/12/21 20:01:14;;;;;;;;;6.00;4.33;;;;;;;;5037274;28;45379;-62
2022/12/21 20:03:40;;;;;;;;;6.33;5.33;;;;;;;;5038117;28;45554;-63
2022/12/21 20:06:05;;;;;;;;;6.33;4.00;;;;;;;;5034136;28;45558;-63
2022/12/21 20:08:31;;;;;;;;;2.33;2.33;;;;;;;;5039162;28;45588;-61
2022/12/21 20:10:56;;;;;;;;;6.33;4.00;;;;;;;;5018950;28;45491;-62
2022/12/21 20:13:22;;;;;;;;;5.00;4.00;;;;;;;;5037673;28;45404;-62
2022/12/21 20:15:48;;;;;;;;;5.00;3.33;;;;;;;;5037138;28;45484;-62
2022/12/21 20:18:15;;;;;;;;;5.00;3.33;;;;;;;;5033279;28;45455;-63
2022/12/21 20:20:40;;;;;;;;;4.33;4.00;;;;;;;;5033066;28;46283;-63
2022/12/21 20:23:05;;;;;;;;;6.00;6.00;;;;;;;;5034552;28;46008;-62
2022/12/21 20:25:32;;;;;;;;;3.67;3.67;;;;;;;;5029215;28;45538;-62
2022/12/21 20:27:57;;;;;;;;;4.33;4.33;;;;;;;;5031845;28;45812;-62